createdAt,value
2023-04-14T00:00:58.757Z,99615.31
2023-04-14T00:03:26.318Z,99607.38
2023-04-14T00:05:53.945Z,99609.91
2023-04-14T00:08:21.223Z,99588.38
2023-04-14T00:10:48.819Z,99592.59
2023-04-14T00:13:16.298Z,99610.09
2023-04-14T00:15:43.867Z,99603.50
2023-04-14T00:18:11.221Z,99572.22
2023-04-14T00:20:38.857Z,99590.72
2023-04-14T00:23:06.253Z,99599.16
2023-04-14T00:25:33.889Z,99605.53
2023-04-14T00:28:01.357Z,99601.66
2023-04-14T00:30:29.183Z,99600.16
2023-04-14T00:32:56.754Z,99596.63
2023-04-14T00:35:24.670Z,99603.84
2023-04-14T00:37:52.045Z,99581.63
2023-04-14T00:40:19.743Z,99579.44
2023-04-14T00:42:47.742Z,99565.47
2023-04-14T00:45:15.548Z,99593.59
2023-04-14T00:47:48.013Z,99598.28
2023-04-14T00:50:18.029Z,99602.34
2023-04-14T00:52:49.250Z,99573.25
2023-04-14T00:55:20.022Z,99598.31
2023-04-14T00:57:48.103Z,99608.56
2023-04-14T01:00:16.297Z,99587.31
2023-04-14T01:02:43.775Z,99620.97
2023-04-14T01:05:12.435Z,99587.19
2023-04-14T01:07:40.841Z,99608.28
2023-04-14T01:10:11.222Z,99615.72
2023-04-14T01:12:56.918Z,99583.94
2023-04-14T01:15:34.362Z,99616.28
2023-04-14T01:18:31.017Z,99629.25
2023-04-14T01:21:16.947Z,99620.34
2023-04-14T01:24:06.581Z,99614.63
2023-04-14T01:26:34.620Z,99615.31
2023-04-14T01:29:34.269Z,99595.94
2023-04-14T01:32:10.709Z,99623.34
2023-04-14T01:34:46.171Z,99606.03
2023-04-14T01:37:36.490Z,99630.09
2023-04-14T01:40:11.434Z,99634.50
2023-04-14T01:42:47.474Z,99623.22
2023-04-14T01:45:23.070Z,99621.03
2023-04-14T01:47:52.453Z,99588.19
2023-04-14T01:50:22.383Z,99615.47
2023-04-14T01:52:54.350Z,99620.66
2023-04-14T01:55:26.557Z,99616.97
2023-04-14T01:57:58.160Z,99597.09
2023-04-14T02:00:26.583Z,99621.50
2023-04-14T02:02:55.089Z,99620.50
2023-04-14T02:05:23.938Z,99629.09
2023-04-14T02:07:53.270Z,99624.03
2023-04-14T02:10:21.840Z,99613.59
2023-04-14T02:12:52.779Z,99623.34
2023-04-14T02:15:22.508Z,99612.75
2023-04-14T02:17:52.754Z,99608.72
2023-04-14T02:20:21.973Z,99595.41
2023-04-14T02:22:49.332Z,99617.31
2023-04-14T02:25:17.120Z,99620.66
2023-04-14T02:27:56.372Z,99615.97
2023-04-14T02:30:30.848Z,99620.69
2023-04-14T02:33:04.529Z,99616.97
2023-04-14T02:35:40.027Z,99626.41
2023-04-14T02:38:29.741Z,99613.59
2023-04-14T02:40:59.342Z,99629.06
2023-04-14T02:43:32.556Z,99632.28
2023-04-14T02:46:05.557Z,99605.84
2023-04-14T02:48:36.033Z,99635.13
2023-04-14T02:51:06.075Z,99597.06
2023-04-14T02:53:34.584Z,99638.97
2023-04-14T02:56:19.548Z,99625.66
2023-04-14T02:58:49.861Z,99642.66
2023-04-14T03:01:19.670Z,99643.19
2023-04-14T03:03:50.253Z,99634.28
2023-04-14T03:06:18.061Z,99616.28
2023-04-14T03:08:47.568Z,99631.41
2023-04-14T03:11:18.865Z,99609.88
2023-04-14T03:13:48.811Z,99638.31
2023-04-14T03:16:20.412Z,99647.41
2023-04-14T03:18:52.261Z,99644.38
2023-04-14T03:21:21.354Z,99645.19
2023-04-14T03:23:53.010Z,99645.16
2023-04-14T03:26:23.473Z,99651.78
2023-04-14T03:28:53.508Z,99648.31
2023-04-14T03:31:29.723Z,99661.31
2023-04-14T03:34:00.022Z,99661.66
2023-04-14T03:36:36.178Z,99633.28
2023-04-14T03:39:06.001Z,99652.56
2023-04-14T03:41:39.768Z,99661.31
2023-04-14T03:44:15.795Z,99662.50
2023-04-14T03:46:46.864Z,99638.75
2023-04-14T03:49:17.335Z,99664.50
2023-04-14T03:51:51.930Z,99649.50
2023-04-14T03:54:23.080Z,99676.47
2023-04-14T03:56:52.118Z,99667.91
2023-04-14T03:59:21.836Z,99668.59
2023-04-14T04:01:50.189Z,99643.81
2023-04-14T04:04:18.821Z,99672.31
2023-04-14T04:06:46.975Z,99667.59
2023-04-14T04:09:15.920Z,99664.31
2023-04-14T04:11:46.742Z,99673.38
2023-04-14T04:14:16.556Z,99669.34
2023-04-14T04:16:49.873Z,99688.47
2023-04-14T04:19:23.084Z,99678.59
2023-04-14T04:21:53.865Z,99670.34
2023-04-14T04:24:23.300Z,99659.91
2023-04-14T04:26:54.367Z,99667.16
2023-04-14T04:29:23.717Z,99675.31
2023-04-14T04:31:54.530Z,99708.59
2023-04-14T04:34:25.228Z,99699.47
2023-04-14T04:36:54.547Z,99714.75
2023-04-14T04:39:21.876Z,99642.53
2023-04-14T04:41:52.002Z,99703.25
2023-04-14T04:44:20.411Z,99665.72
2023-04-14T04:46:56.216Z,99683.63
2023-04-14T04:49:26.956Z,99674.88
2023-04-14T04:51:57.105Z,99700.16
2023-04-14T04:54:24.650Z,99700.69
2023-04-14T04:56:52.376Z,99707.22
2023-04-14T04:59:19.580Z,99701.13
2023-04-14T05:01:47.211Z,99712.44
2023-04-14T05:04:14.646Z,99688.06
2023-04-14T05:06:42.190Z,99703.47
2023-04-14T05:09:09.438Z,99719.06
2023-04-14T05:11:36.986Z,99712.66
2023-04-14T05:14:04.400Z,99720.22
2023-04-14T05:16:32.188Z,99722.13
2023-04-14T05:18:59.873Z,99723.16
2023-04-14T05:21:27.530Z,99719.97
2023-04-14T05:23:54.785Z,99716.19
2023-04-14T05:28:53.212Z,99716.06
2023-04-14T05:31:20.784Z,99715.72
2023-04-14T05:33:47.957Z,99707.53
2023-04-14T05:36:15.741Z,99725.47
2023-04-14T05:38:43.174Z,99716.16
2023-04-14T05:41:12.069Z,99699.00
2023-04-14T05:43:39.405Z,99677.69
2023-04-14T05:46:07.118Z,99679.72
2023-04-14T05:48:36.145Z,99707.19
2023-04-14T05:51:03.759Z,99681.94
2023-04-14T05:53:31.089Z,99699.56
2023-04-14T05:55:59.092Z,99695.50
2023-04-14T05:58:26.903Z,99689.66
2023-04-14T06:00:54.473Z,99703.88
2023-04-14T06:03:21.877Z,99709.31
2023-04-14T06:05:50.891Z,99718.78
2023-04-14T06:08:19.309Z,99728.84
2023-04-14T06:10:47.028Z,99731.75
2023-04-14T06:13:15.225Z,99727.81
2023-04-14T06:15:42.747Z,99733.16
2023-04-14T06:18:09.968Z,99742.88
2023-04-14T06:20:37.580Z,99706.53
2023-04-14T06:23:05.647Z,99727.38
2023-04-14T06:25:34.685Z,99730.44
2023-04-14T06:28:04.967Z,99723.94
2023-04-14T06:30:32.544Z,99714.88
2023-04-14T06:33:04.401Z,99732.44
2023-04-14T06:35:33.986Z,99733.00
2023-04-14T06:38:02.558Z,99732.56
2023-04-14T06:40:30.183Z,99704.03
2023-04-14T06:42:57.584Z,99719.59
2023-04-14T06:45:25.340Z,99727.81
2023-04-14T06:47:52.631Z,99738.06
2023-04-14T06:50:20.168Z,99736.84
2023-04-14T06:52:47.368Z,99743.16
2023-04-14T06:55:15.649Z,99719.91
2023-04-14T06:57:42.881Z,99742.84
2023-04-14T07:00:11.519Z,99739.88
2023-04-14T07:02:39.221Z,99722.94
2023-04-14T07:05:07.749Z,99703.47
2023-04-14T07:07:36.322Z,99720.59
2023-04-14T07:10:04.272Z,99702.63
2023-04-14T07:12:31.646Z,99724.34
2023-04-14T07:14:59.322Z,99719.72
2023-04-14T07:17:26.819Z,99700.06
2023-04-14T07:19:54.414Z,99726.22
2023-04-14T07:22:21.603Z,99694.38
2023-04-14T07:24:49.277Z,99720.44
2023-04-14T07:27:16.556Z,99691.84
2023-04-14T07:29:44.202Z,99690.44
2023-04-14T07:32:13.463Z,99682.56
2023-04-14T07:34:43.921Z,99723.56
2023-04-14T07:37:11.634Z,99722.25
2023-04-14T07:39:39.812Z,99716.41
2023-04-14T07:42:07.368Z,99717.66
2023-04-14T07:44:35.165Z,99720.94
2023-04-14T07:47:02.492Z,99725.47
2023-04-14T07:49:30.048Z,99698.13
2023-04-14T07:51:57.488Z,99699.81
2023-04-14T07:54:25.297Z,99696.69
2023-04-14T07:56:52.555Z,99714.16
2023-04-14T07:59:20.518Z,99699.22
2023-04-14T08:01:48.607Z,99723.25
2023-04-14T08:04:16.353Z,99724.06
2023-04-14T08:06:43.581Z,99716.56
2023-04-14T08:09:12.265Z,99687.66
2023-04-14T08:11:39.568Z,99731.03
2023-04-14T08:14:07.064Z,99721.34
2023-04-14T08:16:36.919Z,99724.53
2023-04-14T08:19:05.175Z,99693.72
2023-04-14T08:21:33.292Z,99700.44
2023-04-14T08:24:01.144Z,99700.41
2023-04-14T08:26:28.343Z,99727.25
2023-04-14T08:28:56.224Z,99718.38
2023-04-14T08:31:25.069Z,99709.75
2023-04-14T08:33:53.037Z,99701.94
2023-04-14T08:36:21.145Z,99709.31
2023-04-14T08:38:48.760Z,99703.91
2023-04-14T08:41:20.684Z,99705.03
2023-04-14T08:43:48.288Z,99700.91
2023-04-14T08:46:16.934Z,99729.31
2023-04-14T08:48:47.847Z,99737.41
2023-04-14T08:51:33.468Z,99746.00
2023-04-14T08:54:04.716Z,99752.88
2023-04-14T08:56:37.176Z,99751.44
2023-04-14T08:59:11.680Z,99745.22
2023-04-14T09:01:39.690Z,99726.09
2023-04-14T09:04:08.809Z,99747.19
2023-04-14T09:06:36.602Z,99752.03
2023-04-14T09:09:08.838Z,99738.69
2023-04-14T09:11:36.586Z,99740.53
2023-04-14T09:14:04.947Z,99719.91
2023-04-14T09:16:33.550Z,99755.16
2023-04-14T09:19:06.924Z,99751.59
2023-04-14T09:21:51.608Z,99719.34
2023-04-14T09:24:31.789Z,99727.97
2023-04-14T09:27:07.855Z,99743.03
2023-04-14T09:29:37.442Z,99739.72
2023-04-14T09:32:06.876Z,99737.91
2023-04-14T09:34:34.456Z,99733.69
2023-04-14T09:37:09.828Z,99735.28
2023-04-14T09:39:49.645Z,99738.19
2023-04-14T09:42:18.205Z,99738.34
2023-04-14T09:44:59.290Z,99725.41
2023-04-14T09:47:26.614Z,99742.56
2023-04-14T09:49:59.597Z,99743.88
2023-04-14T09:52:56.672Z,99740.44
2023-04-14T09:55:24.332Z,99740.97
2023-04-14T09:57:51.988Z,99756.03
2023-04-14T10:00:22.320Z,99745.75
2023-04-14T10:02:56.205Z,99734.69
2023-04-14T10:05:33.987Z,99723.88
2023-04-14T10:08:06.010Z,99741.31
2023-04-14T10:10:34.186Z,99712.06
2023-04-14T10:13:02.279Z,99740.81
2023-04-14T10:15:29.910Z,99713.16
2023-04-14T10:17:57.395Z,99709.25
2023-04-14T10:20:25.377Z,99693.91
2023-04-14T10:22:54.919Z,99740.28
2023-04-14T10:25:24.147Z,99705.56
2023-04-14T10:27:51.754Z,99703.06
2023-04-14T10:30:19.374Z,99737.81
2023-04-14T10:32:48.044Z,99729.66
2023-04-14T10:35:17.768Z,99735.47
2023-04-14T10:37:52.145Z,99735.75
2023-04-14T10:40:21.529Z,99745.47
2023-04-14T10:42:54.907Z,99737.84
2023-04-14T10:45:23.009Z,99721.28
2023-04-14T10:47:51.283Z,99740.50
2023-04-14T10:50:24.182Z,99740.13
2023-04-14T10:52:56.073Z,99730.28
2023-04-14T10:55:25.730Z,99726.31
2023-04-14T10:57:54.708Z,99726.16
2023-04-14T11:00:27.827Z,99733.44
2023-04-14T11:03:03.011Z,99730.28
2023-04-14T11:05:34.205Z,99690.13
2023-04-14T11:08:11.996Z,99721.34
2023-04-14T11:10:40.058Z,99698.94
2023-04-14T11:13:12.240Z,99700.50
2023-04-14T11:16:03.913Z,99727.97
2023-04-14T11:18:32.392Z,99729.69
2023-04-14T11:21:06.920Z,99715.94
2023-04-14T11:23:35.896Z,99727.78
2023-04-14T11:26:06.330Z,99727.19
2023-04-14T11:28:36.248Z,99694.88
2023-04-14T11:31:06.806Z,99702.44
2023-04-14T11:33:37.330Z,99721.91
2023-04-14T11:36:07.373Z,99724.88
2023-04-14T11:38:36.232Z,99728.47
2023-04-14T11:41:04.130Z,99720.19
2023-04-14T11:43:31.649Z,99731.78
2023-04-14T11:46:03.350Z,99700.19
2023-04-14T11:48:30.760Z,99724.50
2023-04-14T11:51:03.708Z,99717.69
2023-04-14T11:53:32.427Z,99702.38
2023-04-14T11:56:00.965Z,99703.50
2023-04-14T11:58:29.068Z,99708.41
2023-04-14T12:00:59.472Z,99685.81
2023-04-14T12:03:31.967Z,99709.09
2023-04-14T12:06:01.782Z,99708.69
2023-04-14T12:08:33.484Z,99708.44
2023-04-14T12:11:13.669Z,99702.28
2023-04-14T12:13:42.166Z,99684.91
2023-04-14T12:16:14.965Z,99707.25
2023-04-14T12:18:43.294Z,99712.78
2023-04-14T12:21:15.820Z,99686.38
2023-04-14T12:23:48.603Z,99722.09
2023-04-14T12:26:16.944Z,99710.34
2023-04-14T12:28:45.068Z,99713.31
2023-04-14T12:31:12.710Z,99680.56
2023-04-14T12:33:40.136Z,99701.22
2023-04-14T12:36:11.801Z,99698.41
2023-04-14T12:38:39.741Z,99702.63
2023-04-14T12:41:07.250Z,99698.53
2023-04-14T12:46:08.220Z,99676.13
2023-04-14T12:48:48.982Z,99645.91
2023-04-14T12:51:18.876Z,99664.50
2023-04-14T12:53:49.401Z,99689.72
2023-04-14T12:56:23.811Z,99694.63
2023-04-14T12:58:51.648Z,99687.75
2023-04-14T13:01:20.937Z,99693.38
2023-04-14T13:03:55.582Z,99665.59
2023-04-14T13:06:25.027Z,99658.81
2023-04-14T13:08:53.592Z,99694.88
2023-04-14T13:11:23.466Z,99690.56
2023-04-14T13:13:52.450Z,99700.03
2023-04-14T13:16:20.485Z,99698.22
2023-04-14T13:18:48.797Z,99689.59
2023-04-14T13:21:17.187Z,99673.88
2023-04-14T13:23:44.598Z,99651.00
2023-04-14T13:26:13.423Z,99679.47
2023-04-14T13:28:40.745Z,99655.81
2023-04-14T13:31:13.099Z,99674.66
2023-04-14T13:33:40.498Z,99671.94
2023-04-14T13:36:08.262Z,99675.34
2023-04-14T13:38:35.730Z,99662.47
2023-04-14T13:41:03.331Z,99652.84
2023-04-14T13:43:30.750Z,99647.06
2023-04-14T13:45:59.127Z,99657.25
2023-04-14T13:48:27.452Z,99641.19
2023-04-14T13:50:55.998Z,99661.00
2023-04-14T13:53:23.367Z,99633.38
2023-04-14T13:55:51.362Z,99661.22
2023-04-14T13:58:18.617Z,99629.38
2023-04-14T14:00:46.523Z,99659.94
2023-04-14T14:03:13.884Z,99636.59
2023-04-14T14:05:41.480Z,99651.91
2023-04-14T14:08:08.805Z,99635.00
2023-04-14T14:10:36.904Z,99658.00
2023-04-14T14:13:04.922Z,99661.47
2023-04-14T14:15:32.583Z,99659.13
2023-04-14T14:17:59.984Z,99672.75
2023-04-14T14:20:27.716Z,99658.06
2023-04-14T14:22:54.995Z,99668.91
2023-04-14T14:25:22.566Z,99659.34
2023-04-14T14:27:51.963Z,99661.81
2023-04-14T14:30:20.275Z,99637.53
2023-04-14T14:32:47.698Z,99627.81
2023-04-14T14:35:16.642Z,99666.34
2023-04-14T14:37:45.799Z,99654.28
2023-04-14T14:40:13.365Z,99656.16
2023-04-14T14:42:40.562Z,99665.50
2023-04-14T14:45:09.352Z,99668.22
2023-04-14T14:47:37.333Z,99664.94
2023-04-14T14:50:08.514Z,99671.00
2023-04-14T14:52:36.510Z,99664.19
2023-04-14T14:55:04.783Z,99664.16
2023-04-14T14:57:32.337Z,99662.41
2023-04-14T15:00:00.043Z,99671.13
2023-04-14T15:02:27.617Z,99642.69
2023-04-14T15:04:55.672Z,99657.34
2023-04-14T15:07:23.059Z,99667.91
2023-04-14T15:09:51.146Z,99640.66
2023-04-14T15:12:19.359Z,99660.13
2023-04-14T15:14:47.101Z,99660.28
2023-04-14T15:17:14.626Z,99651.28
2023-04-14T15:19:42.985Z,99662.47
2023-04-14T15:22:10.612Z,99679.00
2023-04-14T15:24:38.426Z,99661.06
2023-04-14T15:27:06.220Z,99666.00
2023-04-14T15:29:33.982Z,99665.94
2023-04-14T15:32:01.662Z,99664.84
2023-04-14T15:34:29.387Z,99663.06
2023-04-14T15:36:56.975Z,99657.66
2023-04-14T15:39:24.686Z,99650.56
2023-04-14T15:41:52.187Z,99670.94
2023-04-14T15:44:19.858Z,99669.03
2023-04-14T15:46:47.165Z,99667.66
2023-04-14T15:49:14.687Z,99660.56
2023-04-14T15:51:42.483Z,99666.41
2023-04-14T15:54:10.138Z,99659.88
2023-04-14T15:56:37.380Z,99669.34
2023-04-14T15:59:05.123Z,99668.47
2023-04-14T16:01:32.436Z,99665.50
2023-04-14T16:04:00.989Z,99658.44
2023-04-14T16:06:28.675Z,99644.72
2023-04-14T16:08:56.603Z,99636.41
2023-04-14T16:11:24.212Z,99633.81
2023-04-14T16:13:52.840Z,99664.19
2023-04-14T16:16:20.194Z,99668.94
2023-04-14T16:18:48.770Z,99660.28
2023-04-14T16:21:16.467Z,99639.97
2023-04-14T16:23:44.129Z,99660.16
2023-04-14T16:26:12.910Z,99669.84
2023-04-14T16:28:40.513Z,99641.25
2023-04-14T16:31:08.340Z,99665.88
2023-04-14T16:33:36.113Z,99676.53
2023-04-14T16:36:07.802Z,99678.34
2023-04-14T16:38:35.522Z,99679.31
2023-04-14T16:41:03.468Z,99681.69
2023-04-14T16:43:31.488Z,99677.78
2023-04-14T16:46:03.239Z,99687.66
2023-04-14T16:48:31.358Z,99672.56
2023-04-14T16:51:06.832Z,99676.41
2023-04-14T16:53:36.532Z,99692.22
2023-04-14T16:56:05.650Z,99679.31
2023-04-14T16:58:33.508Z,99687.00
2023-04-14T17:01:01.390Z,99686.28
2023-04-14T17:03:29.303Z,99690.63
2023-04-14T17:05:56.772Z,99690.00
2023-04-14T17:08:24.499Z,99685.94
2023-04-14T17:10:51.829Z,99696.03
2023-04-14T17:13:19.630Z,99694.03
2023-04-14T17:15:55.681Z,99662.63
2023-04-14T17:18:30.158Z,99684.31
2023-04-14T17:20:57.372Z,99703.38
2023-04-14T17:23:24.909Z,99700.31
2023-04-14T17:25:53.299Z,99688.88
2023-04-14T17:28:22.824Z,99662.44
2023-04-14T17:30:51.125Z,99701.84
2023-04-14T17:33:20.133Z,99666.78
2023-04-14T17:35:47.686Z,99692.72
2023-04-14T17:38:15.351Z,99702.16
2023-04-14T17:40:42.767Z,99708.75
2023-04-14T17:43:10.494Z,99700.84
2023-04-14T17:45:40.176Z,99667.69
2023-04-14T17:48:08.692Z,99702.50
2023-04-14T17:50:36.162Z,99701.50
2023-04-14T17:53:03.778Z,99703.88
2023-04-14T17:55:31.338Z,99709.59
2023-04-14T17:58:00.284Z,99730.16
2023-04-14T18:00:29.357Z,99687.16
2023-04-14T18:02:56.959Z,99710.09
2023-04-14T18:05:24.293Z,99708.78
2023-04-14T18:07:51.829Z,99723.25
2023-04-14T18:10:19.438Z,99724.13
2023-04-14T18:12:47.797Z,99730.31
2023-04-14T18:15:17.827Z,99665.78
2023-04-14T18:17:45.577Z,99702.34
2023-04-14T18:20:13.774Z,99724.06
2023-04-14T18:22:41.615Z,99731.19
2023-04-14T18:25:09.761Z,99735.50
2023-04-14T18:30:08.504Z,99730.84
2023-04-14T18:32:36.520Z,99739.22
2023-04-14T18:35:04.118Z,99736.66
2023-04-14T18:37:31.758Z,99726.44
2023-04-14T18:40:00.025Z,99706.88
2023-04-14T18:42:30.244Z,99752.88
2023-04-14T18:44:58.441Z,99731.47
2023-04-14T18:47:26.301Z,99717.34
2023-04-14T18:49:53.873Z,99764.38
2023-04-14T18:52:22.222Z,99757.75
2023-04-14T18:54:49.636Z,99756.22
2023-04-14T18:57:17.938Z,99756.22
2023-04-14T18:59:45.833Z,99731.81
2023-04-14T19:02:13.961Z,99770.59
2023-04-14T19:04:41.376Z,99770.94
2023-04-14T19:07:09.128Z,99728.50
2023-04-14T19:09:37.737Z,99756.13
2023-04-14T19:12:06.836Z,99751.56
2023-04-14T19:14:36.507Z,99778.69
2023-04-14T19:17:04.742Z,99756.09
2023-04-14T19:19:35.705Z,99752.91
2023-04-14T19:22:03.840Z,99759.28
2023-04-14T19:24:31.562Z,99754.41
2023-04-14T19:26:59.318Z,99742.28
2023-04-14T19:29:27.180Z,99762.47
2023-04-14T19:31:54.794Z,99755.94
2023-04-14T19:34:22.070Z,99761.50
2023-04-14T19:36:49.658Z,99740.09
2023-04-14T19:39:16.928Z,99720.38
2023-04-14T19:41:44.541Z,99737.91
2023-04-14T19:44:12.715Z,99751.03
2023-04-14T19:46:42.309Z,99770.28
2023-04-14T19:49:11.424Z,99764.88
2023-04-14T19:51:39.119Z,99767.88
2023-04-14T19:54:07.367Z,99733.53
2023-04-14T19:56:35.134Z,99730.31
2023-04-14T19:59:02.895Z,99750.84
2023-04-14T20:01:31.518Z,99765.47
2023-04-14T20:04:05.503Z,99778.91
2023-04-14T20:06:40.349Z,99744.28
2023-04-14T20:09:07.772Z,99734.47
2023-04-14T20:11:35.366Z,99764.81
2023-04-14T20:14:02.656Z,99772.53
2023-04-14T20:16:30.676Z,99765.47
2023-04-14T20:18:58.209Z,99775.50
2023-04-14T20:21:25.938Z,99762.72
2023-04-14T20:23:53.230Z,99777.56
2023-04-14T20:26:21.589Z,99775.91
2023-04-14T20:28:49.645Z,99768.13
2023-04-14T20:31:17.272Z,99763.59
2023-04-14T20:33:44.646Z,99738.44
2023-04-14T20:36:12.593Z,99739.28
2023-04-14T20:38:40.479Z,99771.25
2023-04-14T20:41:08.029Z,99772.03
2023-04-14T20:43:35.478Z,99770.28
2023-04-14T20:46:04.034Z,99765.25
2023-04-14T20:48:32.438Z,99767.22
2023-04-14T20:51:01.453Z,99762.34
2023-04-14T20:53:30.198Z,99764.81
2023-04-14T20:55:57.873Z,99759.94
2023-04-14T20:58:25.276Z,99755.31
2023-04-14T21:00:52.975Z,99763.38
2023-04-14T21:03:20.486Z,99734.53
2023-04-14T21:05:48.272Z,99760.75
2023-04-14T21:08:15.665Z,99762.50
2023-04-14T21:11:14.893Z,99749.16
2023-04-14T21:15:11.352Z,99778.03
2023-04-14T21:16:18.429Z,99747.97
2023-04-14T21:18:46.167Z,99775.09
2023-04-14T21:21:14.023Z,99778.81
2023-04-14T21:23:41.533Z,99782.50
2023-04-14T21:26:09.234Z,99747.88
2023-04-14T21:28:37.055Z,99784.47
2023-04-14T21:31:04.963Z,99763.91
2023-04-14T21:33:32.518Z,99780.16
2023-04-14T21:36:02.834Z,99779.06
2023-04-14T21:38:30.239Z,99784.47
2023-04-14T21:40:57.945Z,99784.94
2023-04-14T21:43:25.215Z,99779.31
2023-04-14T21:45:53.699Z,99777.59
2023-04-14T21:48:21.013Z,99780.66
2023-04-14T21:50:49.361Z,99808.31
2023-04-14T21:53:16.776Z,99751.81
2023-04-14T21:55:44.404Z,99775.94
2023-04-14T21:58:11.676Z,99782.09
2023-04-14T22:00:40.991Z,99794.34
2023-04-14T22:03:08.532Z,99787.59
2023-04-14T22:05:36.374Z,99793.06
2023-04-14T22:08:03.826Z,99793.34
2023-04-14T22:10:34.220Z,99791.22
2023-04-14T22:13:01.721Z,99770.72
2023-04-14T22:15:29.582Z,99766.03
2023-04-14T22:17:56.900Z,99760.75
2023-04-14T22:20:26.561Z,99793.38
2023-04-14T22:22:53.830Z,99788.94
2023-04-14T22:25:21.461Z,99787.13
2023-04-14T22:27:48.793Z,99795.94
2023-04-14T22:30:16.584Z,99797.81
2023-04-14T22:32:43.966Z,99808.38
2023-04-14T22:35:11.623Z,99794.16
2023-04-14T22:37:38.957Z,99771.53
2023-04-14T22:40:07.528Z,99804.09
2023-04-14T22:42:34.895Z,99761.56
2023-04-14T22:45:02.467Z,99804.31
2023-04-14T22:47:29.874Z,99762.56
2023-04-14T22:49:57.456Z,99805.94
2023-04-14T22:52:26.740Z,99786.91
2023-04-14T22:54:54.534Z,99787.50
2023-04-14T22:57:21.965Z,99797.78
2023-04-14T22:59:49.646Z,99806.94
2023-04-14T23:02:17.047Z,99800.09
2023-04-14T23:04:45.012Z,99798.06
2023-04-14T23:07:13.654Z,99796.25
2023-04-14T23:09:41.359Z,99777.69
2023-04-14T23:12:08.699Z,99767.00
2023-04-14T23:14:36.752Z,99791.88
2023-04-14T23:17:04.415Z,99800.72
2023-04-14T23:19:33.776Z,99803.50
2023-04-14T23:22:02.426Z,99799.78
2023-04-14T23:24:30.028Z,99809.75
2023-04-14T23:26:57.735Z,99787.41
2023-04-14T23:29:25.408Z,99778.25
2023-04-14T23:31:52.785Z,99787.50
2023-04-14T23:34:20.661Z,99796.28
2023-04-14T23:36:48.280Z,99790.75
2023-04-14T23:39:15.884Z,99769.66
2023-04-14T23:41:43.141Z,99787.56
2023-04-14T23:44:10.881Z,99772.09
2023-04-14T23:46:39.445Z,99791.75
2023-04-14T23:49:24.395Z,99794.81
2023-04-14T23:51:54.668Z,99788.44
2023-04-14T23:54:22.204Z,99782.84
2023-04-14T23:56:49.413Z,99796.88
2023-04-14T23:59:17.173Z,99787.44
